createdAt,value
2019-02-21T00:01:45.672Z,5.50
2019-02-21T00:04:19.633Z,5.40
2019-02-21T00:06:51.262Z,5.50
2019-02-21T00:09:25.206Z,5.40
2019-02-21T00:11:57.805Z,5.30
2019-02-21T00:14:29.780Z,5.30
2019-02-21T00:17:01.770Z,5.30
2019-02-21T00:19:33.908Z,5.40
2019-02-21T00:22:05.808Z,5.40
2019-02-21T00:24:38.281Z,5.40
2019-02-21T00:27:10.348Z,5.40
2019-02-21T00:29:42.028Z,5.30
2019-02-21T00:32:13.644Z,5.30
2019-02-21T00:34:45.614Z,5.30
2019-02-21T00:37:17.580Z,5.20
2019-02-21T00:39:48.977Z,5.20
2019-02-21T00:42:21.308Z,5.10
2019-02-21T00:44:52.952Z,5.20
2019-02-21T00:47:26.020Z,5.10
2019-02-21T00:49:57.339Z,5.10
2019-02-21T00:52:31.330Z,5.00
2019-02-21T00:55:02.373Z,4.90
2019-02-21T00:57:34.189Z,4.80
2019-02-21T01:00:06.702Z,4.70
2019-02-21T01:02:38.472Z,4.70
2019-02-21T01:05:11.953Z,4.60
2019-02-21T01:07:43.308Z,4.50
2019-02-21T01:10:15.415Z,4.40
2019-02-21T01:12:48.073Z,4.30
2019-02-21T01:15:19.872Z,4.30
2019-02-21T01:17:51.965Z,4.40
2019-02-21T01:20:23.449Z,4.30
2019-02-21T01:22:55.158Z,4.30
2019-02-21T01:25:28.175Z,4.20
2019-02-21T01:28:02.566Z,4.20
2019-02-21T01:30:34.071Z,4.10
2019-02-21T01:33:07.150Z,4.10
2019-02-21T01:35:40.444Z,4.00
2019-02-21T01:38:12.257Z,4.00
2019-02-21T01:40:43.839Z,4.10
2019-02-21T01:43:16.447Z,4.20
2019-02-21T01:45:48.011Z,4.40
2019-02-21T01:48:19.611Z,4.50
2019-02-21T01:50:50.916Z,4.70
2019-02-21T01:53:22.337Z,4.70
2019-02-21T01:55:53.753Z,4.70
2019-02-21T01:58:25.298Z,4.80
2019-02-21T02:01:07.589Z,4.90
2019-02-21T02:03:29.599Z,5.00
2019-02-21T02:06:01.027Z,4.90
2019-02-21T02:08:32.548Z,4.90
2019-02-21T02:11:03.782Z,4.80
2019-02-21T02:13:35.128Z,4.70
2019-02-21T02:16:08.124Z,4.80
2019-02-21T02:18:40.240Z,4.80
2019-02-21T02:21:12.613Z,4.70
2019-02-21T02:23:44.346Z,4.70
2019-02-21T02:26:15.934Z,4.80
2019-02-21T02:28:47.720Z,4.90
2019-02-21T02:31:23.227Z,4.80
2019-02-21T02:33:52.062Z,4.90
2019-02-21T02:36:25.012Z,4.90
2019-02-21T02:38:57.863Z,4.90
2019-02-21T02:41:29.318Z,4.80
2019-02-21T02:44:00.594Z,4.70
2019-02-21T02:46:32.041Z,4.60
2019-02-21T02:49:03.611Z,4.60
2019-02-21T02:51:36.154Z,4.50
2019-02-21T02:54:07.483Z,4.40
2019-02-21T02:56:39.151Z,4.40
2019-02-21T02:59:10.562Z,4.40
2019-02-21T03:01:42.722Z,4.50
2019-02-21T03:04:14.080Z,4.50
2019-02-21T03:06:45.633Z,4.50
2019-02-21T03:09:17.615Z,4.40
2019-02-21T03:11:51.722Z,4.40
2019-02-21T03:14:22.263Z,4.50
2019-02-21T03:16:55.258Z,4.60
2019-02-21T03:19:26.787Z,4.60
2019-02-21T03:21:58.128Z,4.70
2019-02-21T03:24:29.449Z,4.60
2019-02-21T03:27:02.040Z,4.50
2019-02-21T03:29:33.441Z,4.50
2019-02-21T03:32:05.172Z,4.50
2019-02-21T03:34:36.540Z,4.50
2019-02-21T03:37:08.621Z,4.50
2019-02-21T03:39:39.991Z,4.60
2019-02-21T03:42:11.433Z,4.50
2019-02-21T03:44:43.081Z,4.60
2019-02-21T03:47:15.085Z,4.50
2019-02-21T03:49:46.365Z,4.50
2019-02-21T03:52:17.799Z,4.50
2019-02-21T03:54:50.006Z,4.50
2019-02-21T03:57:22.376Z,4.50
2019-02-21T03:59:54.459Z,4.50
2019-02-21T04:02:26.028Z,4.60
2019-02-21T04:04:57.366Z,4.70
2019-02-21T04:07:28.941Z,4.70
2019-02-21T04:10:01.692Z,4.60
2019-02-21T04:12:34.552Z,4.60
2019-02-21T04:15:06.686Z,4.60
2019-02-21T04:17:38.070Z,4.50
2019-02-21T04:20:10.112Z,4.50
2019-02-21T04:22:41.394Z,4.40
2019-02-21T04:25:13.151Z,4.30
2019-02-21T04:27:44.824Z,4.30
2019-02-21T04:30:17.007Z,4.30
2019-02-21T04:32:48.784Z,4.30
2019-02-21T04:35:20.329Z,4.20
2019-02-21T04:37:51.765Z,4.20
2019-02-21T04:40:23.077Z,4.20
2019-02-21T04:42:56.208Z,4.20
2019-02-21T04:45:28.688Z,4.10
2019-02-21T04:48:00.036Z,4.10
2019-02-21T04:50:32.538Z,4.10
2019-02-21T04:53:04.048Z,4.00
2019-02-21T04:55:35.407Z,3.90
2019-02-21T04:58:10.152Z,3.90
2019-02-21T05:00:42.176Z,3.90
2019-02-21T05:03:13.901Z,3.90
2019-02-21T05:05:45.512Z,3.80
2019-02-21T05:08:16.864Z,3.80
2019-02-21T05:10:48.335Z,3.80
2019-02-21T05:13:19.781Z,3.80
2019-02-21T05:15:51.262Z,3.70
2019-02-21T05:18:23.654Z,3.60
2019-02-21T05:20:55.085Z,3.60
2019-02-21T05:23:26.858Z,3.60
2019-02-21T05:25:58.261Z,3.70
2019-02-21T05:28:31.363Z,3.70
2019-02-21T05:31:09.973Z,3.70
2019-02-21T05:34:04.862Z,3.80
2019-02-21T05:36:57.984Z,3.90
2019-02-21T05:39:38.366Z,3.80
2019-02-21T05:42:29.858Z,3.80
2019-02-21T05:45:34.795Z,3.90
2019-02-21T05:48:15.493Z,4.20
2019-02-21T05:51:14.845Z,4.50
2019-02-21T05:54:12.724Z,4.50
2019-02-21T05:57:11.819Z,4.60
2019-02-21T06:00:06.638Z,4.60
2019-02-21T06:02:53.122Z,4.60
2019-02-21T06:05:36.907Z,4.70
2019-02-21T06:08:45.872Z,4.80
2019-02-21T06:11:42.365Z,4.80
2019-02-21T06:14:32.662Z,4.90
2019-02-21T06:17:28.947Z,5.00
2019-02-21T06:20:20.204Z,5.10
2019-02-21T06:23:02.597Z,5.10
2019-02-21T06:25:59.105Z,5.10
2019-02-21T06:28:56.969Z,5.10
2019-02-21T06:31:28.439Z,5.10
2019-02-21T06:34:00.700Z,5.10
2019-02-21T06:36:32.772Z,5.10
2019-02-21T06:39:08.133Z,5.10
2019-02-21T06:41:42.471Z,5.10
2019-02-21T06:44:12.863Z,5.20
2019-02-21T06:46:44.560Z,5.20
2019-02-21T06:49:19.524Z,5.30
2019-02-21T06:51:50.863Z,5.30
2019-02-21T06:54:24.312Z,5.30
2019-02-21T06:56:55.868Z,5.20
2019-02-21T06:59:28.346Z,5.30
2019-02-21T07:02:01.227Z,5.30
2019-02-21T07:04:33.469Z,5.30
2019-02-21T07:07:05.040Z,5.40
2019-02-21T07:09:36.450Z,5.40
2019-02-21T07:12:10.479Z,5.50
2019-02-21T07:14:41.356Z,5.50
2019-02-21T07:17:14.222Z,5.50
2019-02-21T07:19:45.881Z,5.50
2019-02-21T07:22:17.919Z,5.60
2019-02-21T07:24:54.243Z,5.60
2019-02-21T07:27:25.735Z,5.60
2019-02-21T07:29:58.382Z,5.60
2019-02-21T07:32:29.886Z,5.60
2019-02-21T07:35:02.722Z,5.60
2019-02-21T07:37:34.139Z,5.70
2019-02-21T07:40:05.805Z,5.70
2019-02-21T07:42:38.615Z,5.80
2019-02-21T07:45:10.529Z,5.90
2019-02-21T07:47:42.418Z,5.90
2019-02-21T07:50:13.939Z,6.00
2019-02-21T07:52:46.650Z,6.00
2019-02-21T07:55:19.728Z,6.00
2019-02-21T07:57:52.157Z,6.10
2019-02-21T08:00:24.336Z,6.10
2019-02-21T08:02:56.036Z,6.20
2019-02-21T08:05:27.483Z,6.20
2019-02-21T08:08:00.399Z,6.30
2019-02-21T08:10:33.861Z,6.40
2019-02-21T08:13:06.509Z,6.50
2019-02-21T08:15:38.420Z,6.50
2019-02-21T08:18:10.181Z,6.60
2019-02-21T08:20:41.895Z,6.70
2019-02-21T08:23:13.349Z,6.80
2019-02-21T08:25:44.904Z,6.90
2019-02-21T08:28:16.467Z,6.90
2019-02-21T08:30:48.014Z,7.00
2019-02-21T08:33:32.348Z,7.00
2019-02-21T08:36:03.858Z,7.10
2019-02-21T08:38:35.293Z,7.20
2019-02-21T08:41:07.064Z,7.40
2019-02-21T08:43:39.267Z,7.50
2019-02-21T08:46:10.653Z,7.50
2019-02-21T08:48:42.085Z,7.60
2019-02-21T08:51:13.510Z,7.60
2019-02-21T08:53:45.243Z,7.70
2019-02-21T08:56:16.727Z,7.70
2019-02-21T08:58:48.208Z,7.70
2019-02-21T09:01:20.073Z,7.70
2019-02-21T09:03:51.440Z,7.80
2019-02-21T09:06:24.869Z,7.80
2019-02-21T09:08:58.051Z,7.90
2019-02-21T09:11:29.584Z,8.10
2019-02-21T09:14:01.097Z,8.20
2019-02-21T09:16:34.076Z,8.50
2019-02-21T09:19:05.813Z,8.70
2019-02-21T09:21:37.189Z,8.80
2019-02-21T09:24:08.691Z,9.10
2019-02-21T09:26:40.119Z,9.20
2019-02-21T09:29:13.159Z,9.30
2019-02-21T09:31:44.634Z,9.40
2019-02-21T09:34:21.153Z,9.50
2019-02-21T09:36:50.685Z,9.50
2019-02-21T09:39:22.432Z,9.70
2019-02-21T09:41:53.915Z,9.90
2019-02-21T09:44:27.323Z,9.90
2019-02-21T09:46:58.912Z,10.10
2019-02-21T09:49:31.163Z,10.20
2019-02-21T09:52:04.561Z,10.40
2019-02-21T09:54:39.928Z,10.50
2019-02-21T09:57:13.539Z,10.70
2019-02-21T09:59:47.485Z,10.90
2019-02-21T10:02:19.059Z,10.90
2019-02-21T10:05:05.405Z,10.80
2019-02-21T10:07:37.116Z,10.90
2019-02-21T10:10:11.720Z,10.90
2019-02-21T10:12:43.637Z,10.90
2019-02-21T10:15:16.102Z,10.90
2019-02-21T10:17:47.612Z,11.00
2019-02-21T10:20:19.875Z,11.10
2019-02-21T10:22:51.731Z,11.30
2019-02-21T10:25:25.126Z,11.50
2019-02-21T10:27:59.030Z,11.70
2019-02-21T10:30:31.308Z,11.70
2019-02-21T10:33:03.971Z,11.90
2019-02-21T10:35:36.635Z,12.00
2019-02-21T10:38:08.345Z,12.20
2019-02-21T10:40:39.836Z,12.30
2019-02-21T10:43:11.096Z,12.40
2019-02-21T10:45:47.783Z,12.50
2019-02-21T10:48:15.707Z,12.60
2019-02-21T10:50:47.301Z,12.80
2019-02-21T10:53:19.654Z,12.90
2019-02-21T10:55:50.985Z,13.00
2019-02-21T10:58:24.087Z,13.10
2019-02-21T11:00:56.934Z,13.20
2019-02-21T11:03:28.865Z,13.40
2019-02-21T11:06:00.315Z,13.50
2019-02-21T11:08:32.539Z,13.50
2019-02-21T11:11:04.387Z,13.70
2019-02-21T11:13:42.987Z,13.60
2019-02-21T11:16:16.327Z,13.60
2019-02-21T11:18:49.691Z,13.70
2019-02-21T11:21:23.955Z,13.90
2019-02-21T11:23:56.427Z,14.00
2019-02-21T11:26:28.080Z,14.00
2019-02-21T11:29:00.261Z,13.90
2019-02-21T11:31:31.732Z,13.90
2019-02-21T11:34:05.353Z,14.00
2019-02-21T11:36:37.011Z,14.30
2019-02-21T11:39:09.469Z,14.30
2019-02-21T11:41:40.937Z,14.20
2019-02-21T11:44:12.444Z,14.10
2019-02-21T11:46:47.647Z,14.10
2019-02-21T11:49:19.629Z,14.00
2019-02-21T11:51:51.197Z,14.10
2019-02-21T11:54:27.207Z,14.10
2019-02-21T11:56:57.855Z,14.00
2019-02-21T11:59:29.307Z,13.90
2019-02-21T12:02:00.698Z,13.80
2019-02-21T12:04:32.320Z,13.80
2019-02-21T12:07:07.314Z,13.70
2019-02-21T12:09:39.030Z,13.70
2019-02-21T12:12:13.286Z,13.70
2019-02-21T12:14:44.722Z,13.70
2019-02-21T12:17:16.060Z,13.80
2019-02-21T12:19:47.530Z,13.90
2019-02-21T12:22:18.860Z,14.10
2019-02-21T12:24:50.517Z,14.40
2019-02-21T12:27:21.978Z,14.50
2019-02-21T12:29:55.016Z,14.80
2019-02-21T12:32:26.522Z,14.90
2019-02-21T12:34:57.858Z,15.00
2019-02-21T12:37:30.730Z,15.20
2019-02-21T12:40:02.370Z,15.10
2019-02-21T12:42:35.756Z,14.90
2019-02-21T12:45:08.974Z,15.10
2019-02-21T12:47:50.885Z,15.30
2019-02-21T12:50:15.984Z,15.50
2019-02-21T12:52:47.389Z,15.50
2019-02-21T12:55:28.070Z,15.60
2019-02-21T12:57:53.882Z,15.50
2019-02-21T13:00:25.521Z,15.60
2019-02-21T13:02:56.894Z,15.90
2019-02-21T13:05:40.096Z,16.10
2019-02-21T13:08:02.451Z,16.00
2019-02-21T13:10:36.049Z,15.70
2019-02-21T13:13:08.715Z,15.60
2019-02-21T13:15:39.996Z,15.50
2019-02-21T13:18:15.787Z,15.50
2019-02-21T13:20:45.390Z,15.50
2019-02-21T13:23:17.276Z,15.50
2019-02-21T13:25:48.995Z,15.30
2019-02-21T13:28:22.765Z,15.20
2019-02-21T13:30:54.625Z,15.00
2019-02-21T13:33:25.979Z,14.80
2019-02-21T13:35:57.403Z,14.70
2019-02-21T13:38:28.871Z,14.60
2019-02-21T13:41:00.299Z,14.50
2019-02-21T13:43:32.232Z,14.40
2019-02-21T13:46:04.412Z,14.40
2019-02-21T13:48:37.303Z,14.50
2019-02-21T13:51:10.477Z,14.50
2019-02-21T13:53:42.169Z,14.50
2019-02-21T13:56:13.623Z,14.50
2019-02-21T13:58:46.714Z,14.50
2019-02-21T14:01:18.686Z,14.50
2019-02-21T14:03:53.731Z,14.50
2019-02-21T14:06:25.202Z,14.50
2019-02-21T14:08:57.831Z,14.50
2019-02-21T14:11:30.799Z,14.50
2019-02-21T14:14:04.003Z,14.60
2019-02-21T14:16:43.818Z,14.60
2019-02-21T14:19:10.261Z,14.70
2019-02-21T14:21:43.753Z,14.70
2019-02-21T14:24:15.750Z,14.90
2019-02-21T14:26:47.108Z,15.00
2019-02-21T14:29:18.837Z,15.10
2019-02-21T14:31:50.261Z,15.20
2019-02-21T14:34:21.847Z,15.20
2019-02-21T14:36:54.358Z,15.20
2019-02-21T14:39:26.813Z,15.30
2019-02-21T14:41:58.150Z,15.30
2019-02-21T14:44:29.508Z,15.30
2019-02-21T14:47:01.227Z,15.10
2019-02-21T14:49:34.462Z,15.00
2019-02-21T14:52:07.550Z,14.90
2019-02-21T14:54:38.996Z,14.80
2019-02-21T14:57:10.677Z,14.80
2019-02-21T14:59:44.561Z,14.80
2019-02-21T15:02:15.391Z,14.70
2019-02-21T15:04:47.306Z,14.80
2019-02-21T15:07:21.216Z,14.70
2019-02-21T15:09:52.518Z,14.70
2019-02-21T15:12:24.283Z,14.60
2019-02-21T15:14:55.758Z,14.60
2019-02-21T15:17:28.473Z,14.40
2019-02-21T15:20:00.415Z,14.40
2019-02-21T15:22:34.874Z,14.40
2019-02-21T15:25:07.013Z,14.30
2019-02-21T15:27:39.025Z,14.30
2019-02-21T15:30:13.075Z,14.30
2019-02-21T15:32:45.063Z,14.30
2019-02-21T15:35:19.315Z,14.30
2019-02-21T15:37:50.623Z,14.40
2019-02-21T15:40:22.093Z,14.40
2019-02-21T15:42:53.567Z,14.40
2019-02-21T15:45:24.933Z,14.40
2019-02-21T15:47:56.475Z,14.40
2019-02-21T15:50:28.428Z,14.50
2019-02-21T15:52:59.841Z,14.60
2019-02-21T15:55:32.253Z,14.50
2019-02-21T15:58:04.671Z,14.40
2019-02-21T16:00:36.659Z,14.30
2019-02-21T16:03:10.011Z,14.30
2019-02-21T16:05:41.663Z,14.20
2019-02-21T16:08:13.194Z,14.20
2019-02-21T16:10:45.288Z,14.10
2019-02-21T16:13:17.073Z,14.00
2019-02-21T16:15:50.536Z,14.00
2019-02-21T16:18:24.596Z,14.10
2019-02-21T16:20:56.147Z,14.20
2019-02-21T16:23:27.525Z,14.10
2019-02-21T16:26:00.003Z,14.00
2019-02-21T16:28:31.390Z,14.00
2019-02-21T16:31:04.325Z,13.70
2019-02-21T16:33:36.107Z,13.20
2019-02-21T16:36:07.507Z,12.90
2019-02-21T16:38:39.301Z,12.60
2019-02-21T16:41:11.621Z,12.50
2019-02-21T16:43:42.965Z,12.30
2019-02-21T16:46:15.858Z,12.10
2019-02-21T16:48:47.819Z,11.90
2019-02-21T16:51:22.228Z,11.70
2019-02-21T16:53:53.908Z,11.50
2019-02-21T16:56:26.649Z,11.40
2019-02-21T16:59:00.298Z,11.30
2019-02-21T17:01:31.915Z,11.20
2019-02-21T17:04:05.047Z,11.10
2019-02-21T17:06:37.018Z,10.90
2019-02-21T17:09:09.125Z,10.80
2019-02-21T17:11:40.995Z,10.70
2019-02-21T17:14:12.522Z,10.50
2019-02-21T17:16:43.852Z,10.40
2019-02-21T17:19:16.428Z,10.30
2019-02-21T17:21:49.277Z,10.20
2019-02-21T17:24:21.726Z,10.20
2019-02-21T17:26:54.611Z,10.00
2019-02-21T17:29:26.135Z,9.90
2019-02-21T17:31:57.604Z,9.80
2019-02-21T17:34:29.669Z,9.70
2019-02-21T17:37:02.192Z,9.70
2019-02-21T17:39:33.781Z,9.60
2019-02-21T17:42:05.409Z,9.50
2019-02-21T17:44:40.362Z,9.50
2019-02-21T17:47:11.979Z,9.50
2019-02-21T17:49:43.925Z,9.40
2019-02-21T17:52:15.293Z,9.50
2019-02-21T17:54:47.616Z,9.40
2019-02-21T17:57:18.993Z,9.40
2019-02-21T17:59:51.107Z,9.50
2019-02-21T18:02:23.093Z,9.50
2019-02-21T18:04:54.505Z,9.50
2019-02-21T18:07:36.176Z,9.60
2019-02-21T18:09:59.776Z,9.60
2019-02-21T18:12:33.519Z,9.60
2019-02-21T18:15:05.390Z,9.60
2019-02-21T18:17:37.086Z,9.50
2019-02-21T18:20:09.540Z,9.50
2019-02-21T18:22:43.115Z,9.50
2019-02-21T18:25:18.257Z,9.40
2019-02-21T18:27:49.985Z,9.40
2019-02-21T18:30:21.765Z,9.40
2019-02-21T18:32:54.046Z,9.30
2019-02-21T18:35:25.515Z,9.30
2019-02-21T18:37:57.040Z,9.30
2019-02-21T18:40:28.571Z,9.30
2019-02-21T18:42:59.971Z,9.20
2019-02-21T18:45:31.703Z,9.20
2019-02-21T18:48:03.150Z,9.20
2019-02-21T18:50:38.489Z,9.20
2019-02-21T18:53:09.800Z,9.20
2019-02-21T18:55:41.232Z,9.30
2019-02-21T18:58:13.615Z,9.30
2019-02-21T19:00:45.201Z,9.30
2019-02-21T19:03:16.628Z,9.30
2019-02-21T19:05:48.074Z,9.30
2019-02-21T19:08:20.821Z,9.20
2019-02-21T19:10:56.195Z,9.20
2019-02-21T19:13:29.719Z,9.20
2019-02-21T19:16:01.380Z,9.20
2019-02-21T19:18:33.180Z,9.20
2019-02-21T19:21:04.954Z,9.20
2019-02-21T19:23:36.383Z,9.10
2019-02-21T19:26:08.193Z,9.10
2019-02-21T19:28:41.372Z,9.10
2019-02-21T19:31:18.742Z,9.10
2019-02-21T19:33:50.276Z,9.10
2019-02-21T19:36:22.544Z,9.10
2019-02-21T19:38:56.964Z,9.00
2019-02-21T19:41:30.747Z,9.00
2019-02-21T19:44:08.793Z,9.00
2019-02-21T19:46:35.592Z,9.00
2019-02-21T19:49:07.466Z,9.00
2019-02-21T19:51:39.266Z,9.00
2019-02-21T19:54:12.223Z,9.00
2019-02-21T19:56:43.608Z,9.00
2019-02-21T19:59:15.104Z,9.00
2019-02-21T20:01:47.420Z,9.00
2019-02-21T20:04:19.273Z,9.00
2019-02-21T20:06:51.234Z,9.00
2019-02-21T20:09:27.636Z,8.90
2019-02-21T20:11:58.963Z,9.00
2019-02-21T20:14:30.246Z,8.90
2019-02-21T20:17:01.946Z,9.00
2019-02-21T20:19:33.917Z,8.90
2019-02-21T20:22:05.361Z,8.90
2019-02-21T20:24:37.239Z,8.90
2019-02-21T20:27:08.878Z,8.90
2019-02-21T20:29:40.781Z,9.00
2019-02-21T20:32:12.641Z,9.00
2019-02-21T20:34:44.422Z,9.00
2019-02-21T20:37:18.089Z,9.00
2019-02-21T20:39:49.697Z,8.90
2019-02-21T20:42:21.187Z,8.90
2019-02-21T20:44:53.095Z,8.90
2019-02-21T20:47:24.881Z,8.80
2019-02-21T20:49:56.406Z,8.80
2019-02-21T20:52:27.774Z,8.80
2019-02-21T20:55:01.028Z,8.80
2019-02-21T20:57:32.517Z,8.90
2019-02-21T21:00:04.229Z,8.90
2019-02-21T21:02:36.052Z,9.00
2019-02-21T21:05:07.455Z,8.90
2019-02-21T21:07:39.182Z,8.90
2019-02-21T21:10:14.031Z,8.90
2019-02-21T21:12:54.396Z,8.90
2019-02-21T21:15:26.791Z,8.90
2019-02-21T21:17:58.318Z,8.90
2019-02-21T21:20:29.689Z,8.90
2019-02-21T21:23:01.141Z,8.90
2019-02-21T21:25:32.683Z,8.90
2019-02-21T21:28:04.520Z,8.90
2019-02-21T21:30:36.027Z,8.80
2019-02-21T21:33:09.100Z,8.80
2019-02-21T21:35:40.880Z,8.80
2019-02-21T21:38:23.461Z,8.80
2019-02-21T21:40:46.036Z,8.70
2019-02-21T21:43:17.478Z,8.70
2019-02-21T21:45:49.314Z,8.70
2019-02-21T21:48:21.204Z,8.70
2019-02-21T21:50:52.644Z,8.70
2019-02-21T21:53:24.307Z,8.70
2019-02-21T21:55:55.938Z,8.70
2019-02-21T21:58:27.504Z,8.60
2019-02-21T22:00:58.944Z,8.60
2019-02-21T22:03:30.808Z,8.50
2019-02-21T22:06:02.252Z,8.50
2019-02-21T22:08:33.845Z,8.50
2019-02-21T22:11:05.532Z,8.50
2019-02-21T22:13:36.927Z,8.40
2019-02-21T22:16:09.653Z,8.40
2019-02-21T22:18:42.345Z,8.30
2019-02-21T22:21:13.946Z,8.30
2019-02-21T22:23:45.270Z,8.30
2019-02-21T22:26:17.991Z,8.30
2019-02-21T22:28:49.515Z,8.20
2019-02-21T22:31:20.955Z,8.20
2019-02-21T22:33:52.627Z,8.10
2019-02-21T22:36:24.675Z,8.00
2019-02-21T22:38:56.777Z,8.00
2019-02-21T22:41:28.502Z,8.00
2019-02-21T22:44:00.029Z,8.00
2019-02-21T22:46:32.442Z,8.00
2019-02-21T22:49:03.811Z,8.00
2019-02-21T22:51:35.361Z,8.00
2019-02-21T22:54:06.856Z,8.00
2019-02-21T22:56:38.516Z,8.00
2019-02-21T22:59:10.383Z,8.00
2019-02-21T23:01:45.252Z,8.00
2019-02-21T23:05:12.531Z,8.10
2019-02-21T23:08:08.405Z,8.10
2019-02-21T23:10:39.858Z,8.10
2019-02-21T23:13:11.800Z,8.10
2019-02-21T23:15:43.177Z,8.10
2019-02-21T23:18:14.650Z,8.10
2019-02-21T23:20:47.099Z,8.10
2019-02-21T23:23:18.767Z,8.10
2019-02-21T23:25:50.900Z,8.10
2019-02-21T23:28:22.159Z,8.10
2019-02-21T23:30:53.782Z,8.10
2019-02-21T23:33:27.070Z,8.10
2019-02-21T23:35:58.980Z,8.20
2019-02-21T23:38:31.072Z,8.20
2019-02-21T23:41:02.948Z,8.20
2019-02-21T23:43:34.476Z,8.20
2019-02-21T23:46:05.950Z,8.20
2019-02-21T23:48:37.350Z,8.30
2019-02-21T23:51:09.896Z,8.20
2019-02-21T23:53:41.440Z,8.30
2019-02-21T23:56:13.444Z,8.20
2019-02-21T23:58:44.995Z,8.30
